Eurika — LYRZ — position and weather

sailwx.info

Track history (hours):
 
Tides and Currents Weather Stations Pressure Air Temp Water Temp Dewpoint Dewpoint Depression Visibility Wind Speed Wind Dir Waves Ship Positions

Eurika

Last reported at 2014-Nov-26 10:28 UTC. Time now 2014-Nov-27 09:30 UTC.
Position N 39°13' E 009°04'.

Length 79 m; draft 3.2 m.

MMSI: 277335000.

Date/timePositionNaut miles runAvg speedWind from/ knotsBaromVisibWave heightAir tempDewpointWater temp
2014-Nov-26 10:28N 39°13' E 009°04'1 0.2
2014-Nov-26 07:33N 39°13' E 009°04'3 2.6
2014-Nov-26 06:33N 39°10' E 009°06'0 0.0
2014-Nov-26 05:33N 39°10' E 009°06'0 0.0
2014-Nov-26 04:33N 39°10' E 009°06'0 0.3
2014-Nov-26 03:33N 39°11' E 009°06'0 0.4
2014-Nov-26 02:33N 39°10' E 009°06'0 0.1
2014-Nov-26 01:33N 39°10' E 009°06'1 0.7
2014-Nov-26 00:33N 39°10' E 009°06'304 6.5
2014-Nov-24 01:28N 43°12' E 005°01'5 5.3
2014-Nov-24 00:33N 43°16' E 004°60'7 6.9
2014-Nov-23 23:33N 43°23' E 004°56'5 5.4
2014-Nov-23 22:33N 43°23' E 004°49'2 1.5
2014-Nov-23 21:33N 43°24' E 004°47'  
2014-Nov-17 16:06N 43°23' E 004°51'2 3.2
2014-Nov-17 15:30N 43°23' E 004°53'0 0.0
2014-Nov-17 14:30N 43°23' E 004°53'0 0.0
2014-Nov-17 13:30N 43°23' E 004°53'0 0.0
2014-Nov-17 12:33N 43°23' E 004°53'0 0.0
2014-Nov-17 11:24N 43°23' E 004°53'0 0.0
2014-Nov-17 10:30N 43°23' E 004°53'0 0.0
2014-Nov-17 09:33N 43°23' E 004°53'0 0.0
2014-Nov-17 08:33N 43°23' E 004°53'0 0.1
2014-Nov-17 07:33N 43°23' E 004°53'0 0.0
2014-Nov-17 06:30N 43°23' E 004°53'0 0.0
2014-Nov-17 05:30N 43°23' E 004°53'0 0.0
2014-Nov-17 04:33N 43°23' E 004°53'0 0.0
2014-Nov-17 03:30N 43°23' E 004°53'0 0.0
2014-Nov-17 02:30N 43°23' E 004°53'0 0.0
2014-Nov-17 01:30N 43°23' E 004°53'0 0.0
2014-Nov-17 00:33N 43°23' E 004°53'0 0.0
2014-Nov-16 23:30N 43°23' E 004°53'0 0.0
2014-Nov-16 22:30N 43°23' E 004°53'0 0.0
2014-Nov-16 21:33N 43°23' E 004°53'0 0.0
2014-Nov-16 20:33N 43°23' E 004°53'0 0.0
2014-Nov-16 19:30N 43°23' E 004°53'0 0.1
2014-Nov-16 18:30N 43°23' E 004°53'0 0.0
2014-Nov-16 17:33N 43°23' E 004°53'0 0.0
2014-Nov-16 16:24N 43°23' E 004°53'0 0.0
2014-Nov-16 15:33N 43°23' E 004°53'0 0.0
2014-Nov-16 14:33N 43°23' E 004°53'0 0.0
2014-Nov-16 13:33N 43°23' E 004°53'0 0.0
2014-Nov-16 12:33N 43°23' E 004°53'0 0.0
2014-Nov-16 11:34N 43°23' E 004°53'0 0.0
2014-Nov-16 10:33N 43°23' E 004°53'  
Track history (hours):
 
Tides and Currents Weather Stations Pressure Air Temp Water Temp Dewpoint Dewpoint Depression Visibility Wind Speed Wind Dir Waves Ship Positions

Eurika

Last reported at 2014-Nov-26 10:28 UTC. Time now 2014-Nov-27 09:30 UTC.
Position N 39°13' E 009°04'.

Length 79 m; draft 3.2 m.

MMSI: 277335000.

Date/timePositionNaut miles runAvg speedWind from/ knotsBaromVisibWave heightAir tempDewpointWater temp
2014-Nov-26 10:28N 39°13' E 009°04'1 0.2
2014-Nov-26 07:33N 39°13' E 009°04'3 2.6
2014-Nov-26 06:33N 39°10' E 009°06'0 0.0
2014-Nov-26 05:33N 39°10' E 009°06'0 0.0
2014-Nov-26 04:33N 39°10' E 009°06'0 0.3
2014-Nov-26 03:33N 39°11' E 009°06'0 0.4
2014-Nov-26 02:33N 39°10' E 009°06'0 0.1
2014-Nov-26 01:33N 39°10' E 009°06'1 0.7
2014-Nov-26 00:33N 39°10' E 009°06'304 6.5
2014-Nov-24 01:28N 43°12' E 005°01'5 5.3
2014-Nov-24 00:33N 43°16' E 004°60'7 6.9
2014-Nov-23 23:33N 43°23' E 004°56'5 5.4
2014-Nov-23 22:33N 43°23' E 004°49'2 1.5
2014-Nov-23 21:33N 43°24' E 004°47'  
2014-Nov-17 16:06N 43°23' E 004°51'2 3.2
2014-Nov-17 15:30N 43°23' E 004°53'0 0.0
2014-Nov-17 14:30N 43°23' E 004°53'0 0.0
2014-Nov-17 13:30N 43°23' E 004°53'0 0.0
2014-Nov-17 12:33N 43°23' E 004°53'0 0.0
2014-Nov-17 11:24N 43°23' E 004°53'0 0.0
2014-Nov-17 10:30N 43°23' E 004°53'0 0.0
2014-Nov-17 09:33N 43°23' E 004°53'0 0.0
2014-Nov-17 08:33N 43°23' E 004°53'0 0.1
2014-Nov-17 07:33N 43°23' E 004°53'0 0.0
2014-Nov-17 06:30N 43°23' E 004°53'0 0.0
2014-Nov-17 05:30N 43°23' E 004°53'0 0.0
2014-Nov-17 04:33N 43°23' E 004°53'0 0.0
2014-Nov-17 03:30N 43°23' E 004°53'0 0.0
2014-Nov-17 02:30N 43°23' E 004°53'0 0.0
2014-Nov-17 01:30N 43°23' E 004°53'0 0.0
2014-Nov-17 00:33N 43°23' E 004°53'0 0.0
2014-Nov-16 23:30N 43°23' E 004°53'0 0.0
2014-Nov-16 22:30N 43°23' E 004°53'0 0.0
2014-Nov-16 21:33N 43°23' E 004°53'0 0.0
2014-Nov-16 20:33N 43°23' E 004°53'0 0.0
2014-Nov-16 19:30N 43°23' E 004°53'0 0.1
2014-Nov-16 18:30N 43°23' E 004°53'0 0.0
2014-Nov-16 17:33N 43°23' E 004°53'0 0.0
2014-Nov-16 16:24N 43°23' E 004°53'0 0.0
2014-Nov-16 15:33N 43°23' E 004°53'0 0.0
2014-Nov-16 14:33N 43°23' E 004°53'0 0.0
2014-Nov-16 13:33N 43°23' E 004°53'0 0.0
2014-Nov-16 12:33N 43°23' E 004°53'0 0.0
2014-Nov-16 11:34N 43°23' E 004°53'0 0.0
2014-Nov-16 10:33N 43°23' E 004°53'  

Dump ship's entire track history